TimePST,TemperatureF,Dew PointF,Humidity,Sea Level PressureIn,VisibilityMPH,Wind Direction,Wind SpeedMPH,Gust SpeedMPH,PrecipitationIn,Events,Conditions,WindDirDegrees,DateUTC
12:53 AM,39.0,37.0,93,30.25,10.0,SE,3.5,-,N/A,,Partly Cloudy,140,2012-12-06 08:53:00
1:53 AM,36.0,36.0,100,30.25,8.0,Calm,Calm,-,N/A,,Mostly Cloudy,0,2012-12-06 09:53:00
2:53 AM,37.0,37.0,100,30.25,7.0,SE,4.6,-,N/A,,Mostly Cloudy,140,2012-12-06 10:53:00
3:53 AM,41.0,37.9,89,30.24,10.0,Calm,Calm,-,N/A,,Overcast,0,2012-12-06 11:53:00
4:53 AM,41.0,39.0,93,30.23,10.0,SE,4.6,-,N/A,,Overcast,130,2012-12-06 12:53:00
5:46 AM,42.8,39.2,87,30.23,10.0,SSE,5.8,-,N/A,,Overcast,150,2012-12-06 13:46:00
5:53 AM,42.1,39.9,92,30.23,10.0,SSE,5.8,-,N/A,,Overcast,160,2012-12-06 13:53:00
6:53 AM,43.0,39.9,89,30.22,10.0,South,5.8,-,N/A,,Overcast,190,2012-12-06 14:53:00
7:53 AM,43.0,39.9,89,30.22,10.0,SSW,5.8,-,N/A,,Overcast,200,2012-12-06 15:53:00
8:53 AM,44.1,39.9,85,30.22,10.0,SSW,11.5,-,N/A,,Overcast,200,2012-12-06 16:53:00
9:53 AM,45.0,39.9,82,30.23,10.0,South,10.4,-,N/A,,Overcast,190,2012-12-06 17:53:00
10:53 AM,46.0,39.9,79,30.23,10.0,SSW,15.0,-,N/A,,Mostly Cloudy,200,2012-12-06 18:53:00
11:53 AM,48.0,39.9,74,30.20,10.0,South,17.3,-,N/A,,Mostly Cloudy,190,2012-12-06 19:53:00
12:49 PM,48.2,39.2,71,30.19,10.0,SSW,17.3,-,N/A,,Overcast,200,2012-12-06 20:49:00
12:53 PM,48.0,39.0,71,30.19,10.0,SSW,13.8,-,N/A,,Overcast,210,2012-12-06 20:53:00
1:03 PM,48.2,39.2,71,30.19,10.0,South,16.1,-,N/A,,Overcast,190,2012-12-06 21:03:00
1:53 PM,48.0,39.9,74,30.17,10.0,SSW,17.3,-,N/A,,Overcast,200,2012-12-06 21:53:00
2:53 PM,48.9,41.0,74,30.17,10.0,SSW,15.0,21.9,N/A,,Overcast,210,2012-12-06 22:53:00
3:33 PM,48.2,41.0,76,30.16,10.0,SSW,12.7,24.2,0.00,,Overcast,200,2012-12-06 23:33:00
3:53 PM,48.0,42.1,80,30.17,10.0,South,15.0,-,0.00,,Mostly Cloudy,190,2012-12-06 23:53:00
4:53 PM,48.0,42.1,80,30.16,10.0,SSW,13.8,-,N/A,,Overcast,200,2012-12-07 00:53:00
5:53 PM,46.9,43.0,86,30.17,10.0,SSW,11.5,-,0.00,,Overcast,200,2012-12-07 01:53:00
6:53 PM,46.9,43.0,86,30.18,10.0,SSW,6.9,-,0.00,Rain,Light Rain,210,2012-12-07 02:53:00
7:53 PM,46.0,44.1,93,30.19,10.0,SSW,10.4,-,0.00,Rain,Light Rain,200,2012-12-07 03:53:00
8:47 PM,46.4,44.6,93,30.20,10.0,SSW,9.2,-,0.00,Rain,Light Rain,210,2012-12-07 04:47:00
8:53 PM,46.9,44.1,90,30.20,10.0,SSW,11.5,-,0.00,Rain,Light Rain,200,2012-12-07 04:53:00
9:43 PM,46.4,42.8,87,30.20,10.0,SSW,12.7,-,0.00,,Mostly Cloudy,200,2012-12-07 05:43:00
9:53 PM,46.0,43.0,89,30.20,10.0,SSW,12.7,-,0.00,,Mostly Cloudy,200,2012-12-07 05:53:00
10:53 PM,46.0,43.0,89,30.21,10.0,SSW,10.4,-,N/A,,Overcast,200,2012-12-07 06:53:00
11:45 PM,46.4,42.8,87,30.21,10.0,SSW,9.2,-,0.00,Rain,Light Rain,200,2012-12-07 07:45:00
11:53 PM,46.0,43.0,89,30.21,10.0,SSW,8.1,-,0.00,,Light Drizzle,200,2012-12-07 07:53:00